Time;durP1;ratioP1;P1;durP2;ratioP2;P2;SDS_P1;SDS_P2;PMS_P1;PMS_P2;Temp;Humidity;BMP_temperature;BMP_pressure;BME280_temperature;BME280_humidity;BME280_pressure;Samples;Min_cycle;Max_cycle;Signal;HPM_P1;HPM_P2
2022/07/27 00:01:17;;;;;;;5.15;3.63;;;17.90;99.90;;;;;;5216736;28;20175;-63
2022/07/27 00:03:48;;;;;;;4.57;3.72;;;17.80;99.90;;;;;;5218202;28;20087;-64
2022/07/27 00:06:19;;;;;;;3.70;3.08;;;17.70;99.90;;;;;;5209405;28;20227;-64
2022/07/27 00:08:56;;;;;;;6.15;3.08;;;17.70;99.90;;;;;;5215703;28;20238;-63
2022/07/27 00:11:29;;;;;;;3.95;3.40;;;17.60;99.90;;;;;;5217925;28;20034;-64
2022/07/27 00:14:03;;;;;;;4.95;3.88;;;17.60;99.90;;;;;;5239257;28;20027;-62
2022/07/27 00:16:37;;;;;;;5.50;3.73;;;17.50;99.90;;;;;;5218291;28;20328;-63
2022/07/27 00:19:11;;;;;;;3.30;3.00;;;17.50;99.90;;;;;;5214667;28;20035;-63
2022/07/27 00:21:42;;;;;;;3.58;2.67;;;17.40;99.90;;;;;;5236565;28;20331;-64
2022/07/27 00:24:16;;;;;;;4.07;3.17;;;17.30;99.90;;;;;;5237678;28;20035;-66
2022/07/27 00:26:52;;;;;;;4.07;3.67;;;17.30;99.90;;;;;;5256648;28;20304;-64
2022/07/27 00:29:25;;;;;;;3.13;2.83;;;17.30;99.90;;;;;;5256466;28;20050;-63
2022/07/27 00:31:58;;;;;;;3.83;3.42;;;17.20;99.90;;;;;;5242581;28;20329;-63
2022/07/27 00:34:30;;;;;;;4.65;3.28;;;17.20;99.90;;;;;;5237541;28;20028;-64
2022/07/27 00:37:04;;;;;;;4.72;3.35;;;17.20;99.90;;;;;;5216662;28;20107;-63
2022/07/27 00:39:35;;;;;;;6.80;3.30;;;17.20;99.90;;;;;;5235124;28;20021;-63
2022/07/27 00:42:14;;;;;;;4.35;3.80;;;17.20;99.90;;;;;;5216896;28;20038;-63
2022/07/27 00:44:50;;;;;;;5.88;3.30;;;17.30;99.90;;;;;;5234183;28;20035;-65
2022/07/27 00:47:22;;;;;;;3.85;3.05;;;17.40;99.90;;;;;;5218490;28;20024;-63
2022/07/27 00:49:53;;;;;;;5.85;3.63;;;17.30;99.90;;;;;;5201028;28;20044;-66
2022/07/27 00:52:31;;;;;;;3.55;2.85;;;17.30;99.90;;;;;;5217819;28;20028;-64
2022/07/27 00:55:05;;;;;;;3.28;2.90;;;17.30;99.90;;;;;;5203639;28;20032;-64
2022/07/27 00:57:36;;;;;;;3.47;3.15;;;17.20;99.90;;;;;;5235463;28;20024;-63
2022/07/27 01:00:08;;;;;;;4.68;2.83;;;17.10;99.90;;;;;;5217521;28;20035;-67
2022/07/27 01:02:42;;;;;;;6.07;2.88;;;17.10;99.90;;;;;;5234536;28;20035;-65
2022/07/27 01:05:16;;;;;;;5.30;3.87;;;17.00;99.90;;;;;;5225040;28;20250;-64
2022/07/27 01:07:51;;;;;;;3.85;3.38;;;16.90;99.90;;;;;;5235043;28;20258;-64
2022/07/27 01:10:28;;;;;;;3.92;2.95;;;16.80;99.90;;;;;;5233955;28;20038;-64
2022/07/27 01:13:00;;;;;;;3.72;3.20;;;16.80;99.90;;;;;;5217279;28;20031;-62
2022/07/27 01:15:32;;;;;;;3.13;2.78;;;16.80;99.90;;;;;;5217190;28;20349;-62
2022/07/27 01:18:09;;;;;;;3.13;2.80;;;16.90;99.90;;;;;;5230457;28;20024;-63
2022/07/27 01:20:43;;;;;;;3.50;2.90;;;17.00;99.90;;;;;;5245408;28;20296;-62
2022/07/27 01:23:15;;;;;;;3.58;2.55;;;16.90;99.90;;;;;;5234981;28;20202;-65
2022/07/27 01:25:46;;;;;;;3.08;2.78;;;16.90;99.90;;;;;;5217200;28;20025;-64
2022/07/27 01:28:17;;;;;;;2.95;2.30;;;16.90;99.90;;;;;;5235714;28;20019;-66
2022/07/27 01:30:49;;;;;;;3.67;2.80;;;16.90;99.90;;;;;;5217407;28;20029;-65
2022/07/27 01:33:26;;;;;;;3.40;2.63;;;16.80;99.90;;;;;;5236113;28;20029;-63
2022/07/27 01:36:00;;;;;;;2.83;2.47;;;16.70;99.90;;;;;;5234706;28;20020;-62
2022/07/27 01:38:31;;;;;;;4.63;2.65;;;16.70;99.90;;;;;;5212516;28;20028;-63
2022/07/27 01:41:02;;;;;;;2.83;2.58;;;16.60;99.90;;;;;;5218090;28;20055;-64
2022/07/27 01:43:34;;;;;;;2.97;2.47;;;16.70;99.90;;;;;;5216909;28;20020;-64
2022/07/27 01:46:05;;;;;;;2.05;1.83;;;16.70;99.90;;;;;;5235305;28;20029;-63
2022/07/27 01:48:41;;;;;;;2.53;2.33;;;16.70;99.90;;;;;;5235177;28;20017;-62
2022/07/27 01:51:17;;;;;;;2.53;2.15;;;16.70;99.90;;;;;;5234192;28;20332;-62
2022/07/27 01:53:48;;;;;;;2.45;2.20;;;16.70;99.90;;;;;;5235496;28;20055;-64
2022/07/27 01:56:19;;;;;;;2.83;2.30;;;16.80;99.90;;;;;;5237383;28;20313;-62
2022/07/27 01:58:54;;;;;;;2.58;2.38;;;16.80;99.90;;;;;;5235409;28;20042;-63
2022/07/27 02:01:27;;;;;;;2.55;2.35;;;16.70;99.90;;;;;;5216847;28;20185;-63
2022/07/27 02:03:58;;;;;;;2.77;2.47;;;16.70;99.90;;;;;;5236466;28;20035;-64
2022/07/27 02:06:32;;;;;;;2.83;2.53;;;16.70;99.90;;;;;;5224057;28;20365;-63
2022/07/27 02:09:06;;;;;;;3.13;2.55;;;16.70;99.90;;;;;;5220995;28;20028;-62
2022/07/27 02:14:27;;;;;;;2.80;2.50;;;16.60;99.90;;;;;;5222496;28;20028;-65
2022/07/27 02:17:03;;;;;;;5.00;2.83;;;16.60;99.90;;;;;;5220010;28;20386;-64
2022/07/27 02:19:34;;;;;;;3.08;1.90;;;16.60;99.90;;;;;;5221268;28;20306;-63
2022/07/27 02:22:05;;;;;;;3.67;2.20;;;16.60;99.90;;;;;;5238650;28;20020;-63
2022/07/27 02:24:39;;;;;;;2.28;2.08;;;16.60;99.90;;;;;;5224847;28;20024;-63
2022/07/27 02:27:13;;;;;;;4.32;2.10;;;16.50;99.90;;;;;;5216678;28;20043;-66
2022/07/27 02:29:47;;;;;;;3.47;2.40;;;16.50;99.90;;;;;;5201051;28;20037;-63
2022/07/27 02:32:19;;;;;;;2.47;2.28;;;16.50;99.90;;;;;;5256943;28;20034;-66
2022/07/27 02:34:53;;;;;;;2.25;2.13;;;16.50;99.90;;;;;;5241638;28;20016;-64
2022/07/27 02:37:26;;;;;;;3.88;2.58;;;16.50;99.90;;;;;;5237325;28;20034;-64
2022/07/27 02:40:00;;;;;;;3.40;2.30;;;16.50;99.90;;;;;;5220051;28;20024;-63
2022/07/27 02:42:33;;;;;;;2.85;2.40;;;16.40;99.90;;;;;;5221042;28;20024;-65
2022/07/27 02:45:08;;;;;;;2.65;1.95;;;16.40;99.90;;;;;;5220204;28;20278;-62
2022/07/27 02:47:39;;;;;;;2.28;2.08;;;16.40;99.90;;;;;;5220733;28;20201;-63
2022/07/27 02:50:11;;;;;;;2.55;1.95;;;16.40;99.90;;;;;;5203722;28;20280;-62
2022/07/27 02:52:47;;;;;;;2.28;2.08;;;16.40;99.90;;;;;;5230114;28;20200;-65
2022/07/27 02:55:19;;;;;;;3.15;2.35;;;16.30;99.90;;;;;;5219658;28;20024;-62
2022/07/27 02:57:52;;;;;;;2.58;2.38;;;16.20;99.90;;;;;;5220443;28;20024;-63
2022/07/27 03:00:26;;;;;;;3.47;2.50;;;16.20;99.90;;;;;;5203571;28;20035;-62
2022/07/27 03:02:57;;;;;;;2.80;2.50;;;16.10;99.90;;;;;;5238711;28;20260;-64
2022/07/27 03:05:36;;;;;;;4.35;2.53;;;16.10;99.90;;;;;;5201571;28;20055;-62
2022/07/27 03:08:08;;;;;;;2.83;2.10;;;16.10;99.90;;;;;;5179290;28;20298;-65
2022/07/27 03:10:39;;;;;;;2.60;2.40;;;16.00;99.90;;;;;;5203788;28;20036;-62
2022/07/27 03:13:11;;;;;;;2.45;2.00;;;16.00;99.90;;;;;;5238531;28;20028;-63
2022/07/27 03:15:42;;;;;;;2.50;2.30;;;16.10;99.90;;;;;;5221201;28;20210;-63
2022/07/27 03:18:16;;;;;;;3.35;2.33;;;16.00;99.90;;;;;;5219852;28;20042;-66
2022/07/27 03:20:48;;;;;;;2.47;2.22;;;16.00;99.90;;;;;;5237826;28;20352;-62
2022/07/27 03:23:21;;;;;;;2.40;2.20;;;15.90;99.90;;;;;;5226903;28;20047;-63
2022/07/27 03:25:52;;;;;;;3.08;2.50;;;16.00;99.90;;;;;;5230601;28;20021;-63
2022/07/27 03:28:25;;;;;;;2.53;2.08;;;15.90;99.90;;;;;;5202393;28;20272;-63
2022/07/27 03:31:05;;;;;;;4.47;2.75;;;15.90;99.90;;;;;;5237670;28;20178;-64
2022/07/27 03:33:39;;;;;;;2.67;2.10;;;15.90;99.90;;;;;;5234024;28;20017;-64
2022/07/27 03:36:10;;;;;;;2.55;2.20;;;15.90;99.90;;;;;;5222312;28;20376;-64
2022/07/27 03:38:41;;;;;;;3.97;3.08;;;16.00;99.90;;;;;;5216716;28;20233;-64
2022/07/27 03:41:15;;;;;;;1.95;1.85;;;15.90;99.90;;;;;;5219904;28;20034;-64
2022/07/27 03:43:46;;;;;;;6.72;2.40;;;15.90;99.90;;;;;;5210382;28;20036;-64
2022/07/27 03:46:23;;;;;;;3.05;2.60;;;15.90;99.90;;;;;;5202412;28;20020;-62
2022/07/27 03:48:55;;;;;;;2.47;2.28;;;16.00;99.90;;;;;;5220544;28;20325;-66
2022/07/27 03:51:29;;;;;;;2.40;2.08;;;16.00;99.90;;;;;;5237594;28;20016;-64
2022/07/27 03:54:02;;;;;;;2.50;2.30;;;16.00;99.90;;;;;;5238032;28;20020;-67
2022/07/27 03:56:33;;;;;;;2.78;2.45;;;16.00;99.90;;;;;;5220159;28;20337;-65
2022/07/27 03:59:05;;;;;;;2.55;2.35;;;16.00;99.90;;;;;;5237462;28;20549;-63
2022/07/27 04:01:36;;;;;;;3.67;2.80;;;16.10;99.90;;;;;;5236525;28;20278;-64
2022/07/27 04:04:07;;;;;;;2.55;2.33;;;16.30;99.90;;;;;;5239884;28;20028;-63
2022/07/27 04:06:38;;;;;;;2.35;1.77;;;16.50;99.90;;;;;;5226226;28;20044;-68
2022/07/27 04:09:10;;;;;;;1.80;1.70;;;16.80;99.90;;;;;;5220252;28;20029;-65
2022/07/27 04:11:42;;;;;;;2.55;1.90;;;16.90;99.90;;;;;;5219075;28;20028;-65
2022/07/27 04:14:13;;;;;;;2.85;1.77;;;17.10;99.90;;;;;;5202725;28;20028;-65
2022/07/27 04:16:45;;;;;;;1.85;1.50;;;17.20;99.90;;;;;;5219611;28;20020;-66
2022/07/27 04:19:19;;;;;;;5.63;2.05;;;17.40;99.90;;;;;;5220236;28;20056;-69
2022/07/27 04:21:51;;;;;;;1.85;1.67;;;17.40;99.90;;;;;;5218783;28;20036;-68
2022/07/27 04:24:22;;;;;;;1.77;1.45;;;17.60;99.90;;;;;;5237111;28;20039;-69
2022/07/27 04:26:53;;;;;;;4.97;1.90;;;17.90;99.90;;;;;;5237644;28;20024;-65
2022/07/27 04:29:27;;;;;;;1.83;1.73;;;18.10;99.90;;;;;;5238063;28;20020;-68
2022/07/27 04:31:59;;;;;;;1.67;1.58;;;18.10;99.90;;;;;;5236773;28;20024;-64
2022/07/27 04:34:33;;;;;;;1.83;1.73;;;18.20;99.90;;;;;;5227039;28;20020;-63
2022/07/27 04:37:04;;;;;;;1.92;1.77;;;18.20;99.90;;;;;;5258533;28;20028;-62
2022/07/27 04:39:36;;;;;;;2.22;1.80;;;18.30;99.90;;;;;;5239736;28;20023;-64
2022/07/27 04:42:07;;;;;;;5.30;1.90;;;18.40;99.90;;;;;;5222119;28;20024;-65
2022/07/27 04:44:38;;;;;;;1.85;1.73;;;18.50;99.90;;;;;;5218993;28;20203;-69
2022/07/27 04:47:10;;;;;;;1.70;1.50;;;18.50;99.90;;;;;;5236447;28;20036;-66
2022/07/27 04:49:46;;;;;;;1.50;1.40;;;18.70;99.90;;;;;;5218764;28;20059;-67
2022/07/27 04:52:20;;;;;;;1.58;1.48;;;18.90;99.90;;;;;;5237492;28;20185;-65
2022/07/27 04:55:00;;;;;;;1.55;1.45;;;19.10;99.90;;;;;;5219029;28;20029;-66
2022/07/27 04:57:34;;;;;;;1.20;1.10;;;19.40;99.90;;;;;;5228145;28;20032;-64
2022/07/27 05:00:06;;;;;;;2.40;2.17;;;19.80;99.90;;;;;;5232873;28;20035;-66
2022/07/27 05:02:40;;;;;;;3.22;1.52;;;20.10;99.90;;;;;;5234708;28;20373;-66
2022/07/27 05:05:12;;;;;;;2.00;1.63;;;20.20;99.90;;;;;;5224722;28;20348;-66
2022/07/27 05:07:46;;;;;;;1.60;1.50;;;20.10;99.90;;;;;;5236446;28;20306;-64
2022/07/27 05:10:20;;;;;;;1.70;1.45;;;20.10;99.90;;;;;;5236479;28;20033;-64
2022/07/27 05:12:54;;;;;;;2.53;1.73;;;20.10;99.90;;;;;;5217817;28;20047;-65
2022/07/27 05:15:27;;;;;;;1.55;1.45;;;20.40;99.90;;;;;;5217910;28;20024;-65
2022/07/27 05:17:58;;;;;;;1.42;1.33;;;20.60;99.90;;;;;;5218101;28;20020;-64
2022/07/27 05:20:30;;;;;;;1.25;1.15;;;20.80;99.90;;;;;;5193691;28;20033;-64
2022/07/27 05:23:05;;;;;;;1.70;1.52;;;21.30;99.90;;;;;;5197909;28;20037;-65
2022/07/27 05:25:37;;;;;;;2.22;1.88;;;21.20;99.90;;;;;;5192524;28;20037;-65
2022/07/27 05:28:10;;;;;;;3.83;1.88;;;21.40;99.90;;;;;;5201285;28;20025;-65
2022/07/27 05:30:42;;;;;;;2.90;1.98;;;21.60;99.90;;;;;;5190754;28;20031;-65
2022/07/27 05:33:14;;;;;;;3.13;1.90;;;21.90;99.90;;;;;;5217189;28;20032;-65
2022/07/27 05:35:48;;;;;;;2.58;2.15;;;22.20;99.90;;;;;;5215798;28;20037;-65
2022/07/27 05:38:20;;;;;;;2.08;1.88;;;22.60;99.90;;;;;;5197142;28;20025;-64
2022/07/27 05:40:53;;;;;;;2.38;1.70;;;23.10;99.90;;;;;;5210142;28;20241;-66
2022/07/27 05:43:27;;;;;;;5.03;2.45;;;23.40;99.90;;;;;;5239962;28;20050;-63
2022/07/27 05:46:01;;;;;;;2.37;1.87;;;23.50;99.90;;;;;;5227543;28;20314;-66
2022/07/27 05:48:37;;;;;;;1.48;1.38;;;23.70;99.90;;;;;;5218737;28;20187;-64
2022/07/27 05:51:08;;;;;;;2.45;1.92;;;24.00;99.90;;;;;;5201349;28;20341;-69
2022/07/27 05:53:44;;;;;;;3.08;1.40;;;24.30;99.90;;;;;;5218196;28;20298;-65
2022/07/27 05:56:15;;;;;;;1.98;1.70;;;24.60;99.90;;;;;;5206709;28;20048;-67
2022/07/27 05:58:49;;;;;;;3.50;1.77;;;24.90;99.90;;;;;;5191036;28;20041;-65
2022/07/27 06:01:23;;;;;;;1.98;1.55;;;25.30;99.90;;;;;;5218771;28;20024;-64
2022/07/27 06:03:57;;;;;;;1.42;1.33;;;25.50;99.90;;;;;;5217828;28;20048;-67
2022/07/27 06:09:23;;;;;;;1.40;1.23;;;26.00;99.90;;;;;;5202940;28;20049;-67
2022/07/27 06:11:57;;;;;;;3.17;1.42;;;26.30;99.90;;;;;;5238064;28;20036;-63
2022/07/27 06:14:34;;;;;;;1.55;1.45;;;26.60;99.90;;;;;;5241352;28;20572;-66
2022/07/27 06:17:08;;;;;;;2.50;1.50;;;26.70;99.90;;;;;;5241392;28;20043;-64
2022/07/27 06:19:39;;;;;;;1.63;1.30;;;26.90;99.90;;;;;;5238973;28;20030;-65
2022/07/27 06:22:13;;;;;;;1.40;1.30;;;26.70;99.90;;;;;;5203679;28;20035;-65
2022/07/27 06:24:44;;;;;;;1.48;1.10;;;26.30;99.90;;;;;;5233762;28;20290;-66
2022/07/27 06:27:19;;;;;;;1.30;1.20;;;26.70;99.90;;;;;;5221867;28;20027;-64
2022/07/27 06:29:50;;;;;;;1.13;1.02;;;26.90;99.90;;;;;;5223489;28;20438;-64
2022/07/27 06:32:22;;;;;;;1.20;1.10;;;26.20;99.90;;;;;;5245139;28;20297;-64
2022/07/27 06:34:53;;;;;;;5.20;1.23;;;25.50;99.90;;;;;;5238206;28;20026;-65
2022/07/27 06:37:26;;;;;;;1.40;1.30;;;24.60;99.90;;;;;;5220250;28;20033;-63
2022/07/27 06:40:01;;;;;;;1.13;1.02;;;24.00;99.90;;;;;;5219470;28;20253;-63
2022/07/27 06:42:32;;;;;;;1.40;1.30;;;23.80;99.90;;;;;;5219460;28;20314;-62
2022/07/27 06:45:04;;;;;;;1.40;1.30;;;23.60;99.90;;;;;;5239109;28;20020;-64
2022/07/27 06:47:38;;;;;;;1.40;1.30;;;23.50;99.90;;;;;;5238899;28;20032;-63
2022/07/27 06:50:09;;;;;;;4.00;1.10;;;23.70;99.90;;;;;;5204746;28;20371;-63
2022/07/27 06:52:43;;;;;;;1.55;1.45;;;23.80;99.90;;;;;;5232994;28;20032;-62
2022/07/27 06:55:17;;;;;;;1.53;1.43;;;23.90;99.90;;;;;;5214304;28;20328;-63
2022/07/27 06:57:48;;;;;;;1.80;1.45;;;24.10;99.90;;;;;;5219693;28;20024;-63
2022/07/27 07:00:19;;;;;;;1.40;1.20;;;24.40;99.90;;;;;;5203683;28;20223;-63
2022/07/27 07:02:58;;;;;;;1.83;1.63;;;24.30;99.90;;;;;;5238746;28;20034;-63
2022/07/27 07:05:31;;;;;;;1.63;1.30;;;24.40;99.90;;;;;;5226927;28;20045;-63
2022/07/27 07:08:10;;;;;;;1.63;1.40;;;24.50;99.90;;;;;;5219200;28;20241;-63
2022/07/27 07:10:44;;;;;;;2.13;1.83;;;24.60;99.90;;;;;;5202485;28;20040;-63
2022/07/27 07:13:15;;;;;;;1.40;1.30;;;24.60;99.90;;;;;;5238646;28;20213;-63
2022/07/27 07:15:47;;;;;;;2.42;1.20;;;24.40;99.90;;;;;;5219909;28;20043;-63
2022/07/27 07:18:21;;;;;;;1.38;1.27;;;24.70;99.90;;;;;;5219992;28;20035;-63
2022/07/27 07:20:53;;;;;;;1.65;1.55;;;25.20;99.90;;;;;;5219696;28;20032;-64
2022/07/27 07:23:24;;;;;;;1.30;1.20;;;25.80;99.90;;;;;;5210285;28;20055;-64
2022/07/27 07:25:57;;;;;;;2.58;1.45;;;26.10;99.90;;;;;;5220007;28;20191;-64
2022/07/27 07:28:29;;;;;;;2.05;1.48;;;25.30;99.90;;;;;;5220516;28;20287;-63
2022/07/27 07:31:01;;;;;;;1.35;1.25;;;24.90;99.90;;;;;;5203515;28;20032;-63
2022/07/27 07:33:32;;;;;;;1.33;1.23;;;25.20;99.90;;;;;;5220719;28;20035;-63
2022/07/27 07:36:06;;;;;;;1.85;1.65;;;25.30;99.90;;;;;;5256162;28;20208;-63
2022/07/27 07:38:39;;;;;;;1.55;1.45;;;25.50;99.90;;;;;;5258504;28;20023;-64
2022/07/27 07:41:16;;;;;;;2.50;1.70;;;26.00;99.90;;;;;;5240017;28;20055;-63
2022/07/27 07:43:47;;;;;;;2.75;1.70;;;25.40;99.90;;;;;;5237393;28;20028;-64
2022/07/27 07:46:19;;;;;;;2.10;1.50;;;25.70;99.90;;;;;;5237760;28;20032;-63
2022/07/27 07:48:50;;;;;;;1.67;1.50;;;26.10;99.90;;;;;;5236766;28;20203;-64
2022/07/27 07:51:30;;;;;;;2.00;1.40;;;26.20;99.90;;;;;;5231238;28;20031;-63
2022/07/27 07:54:07;;;;;;;1.73;1.33;;;26.90;99.90;;;;;;5237310;28;20038;-63
2022/07/27 07:56:38;;;;;;;2.40;1.70;;;27.50;99.90;;;;;;5220204;28;20063;-63
2022/07/27 07:59:10;;;;;;;1.65;1.55;;;27.40;99.90;;;;;;5255967;28;20032;-64
2022/07/27 08:01:41;;;;;;;1.48;1.33;;;27.50;99.90;;;;;;5228693;28;20021;-64
2022/07/27 08:04:15;;;;;;;1.58;1.48;;;27.60;99.90;;;;;;5226102;28;20017;-63
2022/07/27 08:06:49;;;;;;;;;;;27.30;99.90;;;;;;5235711;28;20063;-64
2022/07/27 08:09:25;;;;;;;1.48;1.02;;;27.90;99.90;;;;;;5238070;28;19900;-64
2022/07/27 08:11:56;;;;;;;1.58;1.35;;;28.70;99.90;;;;;;5219034;28;20032;-64
2022/07/27 08:14:28;;;;;;;1.65;1.45;;;29.40;99.90;;;;;;5202524;28;20031;-64
2022/07/27 08:16:59;;;;;;;1.40;1.23;;;29.20;99.90;;;;;;5237045;28;20123;-64
2022/07/27 08:19:33;;;;;;;2.60;1.63;;;28.10;99.90;;;;;;5233612;28;20024;-63
2022/07/27 08:22:04;;;;;;;3.65;1.55;;;27.60;99.90;;;;;;5221928;28;20250;-63
2022/07/27 08:24:38;;;;;;;2.10;1.45;;;27.90;99.90;;;;;;5223951;28;20033;-63
2022/07/27 08:27:15;;;;;;;2.53;1.83;;;28.70;99.90;;;;;;5221633;28;20024;-63
2022/07/27 08:29:46;;;;;;;1.75;1.55;;;29.10;99.90;;;;;;5202870;28;20226;-63
2022/07/27 08:32:20;;;;;;;1.95;1.75;;;29.90;99.90;;;;;;5198952;28;20035;-63
2022/07/27 08:34:51;;;;;;;2.60;1.70;;;29.90;99.90;;;;;;5200161;28;20023;-63
2022/07/27 08:37:22;;;;;;;1.90;1.70;;;30.00;99.90;;;;;;5218789;28;20042;-65
2022/07/27 08:39:57;;;;;;;2.15;1.42;;;30.10;99.90;;;;;;5219078;28;20036;-62
2022/07/27 08:42:30;;;;;;;2.30;1.60;;;30.70;99.90;;;;;;5219832;28;20023;-65
2022/07/27 08:45:05;;;;;;;2.08;1.63;;;31.00;99.90;;;;;;5218447;28;20024;-66
2022/07/27 08:47:38;;;;;;;4.35;2.03;;;30.20;99.90;;;;;;5215068;28;20023;-63
2022/07/27 08:50:27;;;;;;;5.07;1.85;;;29.20;99.90;;;;;;5215536;28;20020;-64
2022/07/27 08:53:03;;;;;;;1.92;1.73;;;28.20;99.90;;;;;;5237214;28;20020;-64
2022/07/27 08:55:36;;;;;;;1.55;1.23;;;28.20;99.90;;;;;;5211786;28;20336;-65
2022/07/27 08:58:10;;;;;;;3.70;1.60;;;29.60;99.90;;;;;;5256764;28;20027;-63
2022/07/27 09:00:48;;;;;;;2.97;1.92;;;29.10;99.90;;;;;;5220148;28;20686;-64
2022/07/27 09:03:24;;;;;;;1.92;1.40;;;29.20;99.90;;;;;;5216408;28;20157;-66
2022/07/27 09:05:57;;;;;;;2.20;1.83;;;29.50;99.90;;;;;;5225815;28;20048;-64
2022/07/27 09:08:37;;;;;;;2.35;1.98;;;30.90;99.90;;;;;;5219812;28;20020;-64
2022/07/27 09:11:14;;;;;;;2.05;1.70;;;32.20;99.90;;;;;;5237316;28;20017;-64
2022/07/27 09:13:50;;;;;;;2.22;1.80;;;31.90;99.90;;;;;;5218956;28;20047;-63
2022/07/27 09:16:30;;;;;;;2.15;1.50;;;31.20;99.90;;;;;;5221863;28;20020;-66
2022/07/27 09:19:08;;;;;;;2.88;1.80;;;30.50;99.90;;;;;;5231625;28;20046;-65
2022/07/27 09:21:47;;;;;;;2.05;1.80;;;30.60;99.90;;;;;;5222534;28;20023;-64
2022/07/27 09:24:20;;;;;;;2.38;2.17;;;30.70;99.90;;;;;;5223235;28;20180;-65
2022/07/27 09:27:02;;;;;;;1.75;1.40;;;31.00;99.90;;;;;;5240064;28;20036;-64
2022/07/27 09:29:37;;;;;;;2.78;1.67;;;31.40;99.90;;;;;;5239061;28;20309;-65
2022/07/27 09:32:20;;;;;;;2.08;1.80;;;31.80;99.90;;;;;;5240480;28;20028;-63
2022/07/27 09:34:52;;;;;;;1.90;1.70;;;31.50;99.90;;;;;;5206328;28;20040;-63
2022/07/27 09:37:31;;;;;;;2.47;1.80;;;31.80;99.90;;;;;;5240502;28;20032;-64
2022/07/27 09:40:12;;;;;;;1.85;1.67;;;32.30;99.90;;;;;;5219564;28;20455;-63
2022/07/27 09:42:49;;;;;;;3.00;2.30;;;32.90;99.90;;;;;;5219218;28;20025;-64
2022/07/27 09:45:34;;;;;;;2.85;2.30;;;33.00;99.90;;;;;;5219134;28;20020;-65
2022/07/27 09:48:19;;;;;;;3.25;2.40;;;32.70;99.90;;;;;;5233374;28;20033;-65
2022/07/27 09:50:59;;;;;;;2.78;2.50;;;32.20;99.90;;;;;;5231707;28;20024;-64
2022/07/27 09:53:33;;;;;;;3.33;2.20;;;32.30;99.90;;;;;;5221157;28;20043;-64
2022/07/27 09:56:08;;;;;;;3.25;2.40;;;32.10;99.90;;;;;;5220575;28;20322;-68
2022/07/27 09:58:49;;;;;;;3.55;2.58;;;32.50;99.90;;;;;;5218778;28;20300;-64
2022/07/27 10:01:29;;;;;;;2.47;2.20;;;32.30;99.90;;;;;;5227292;28;20019;-66
2022/07/27 10:04:06;;;;;;;2.28;2.08;;;32.30;99.90;;;;;;5239690;28;20298;-63
2022/07/27 10:06:38;;;;;;;2.83;2.55;;;32.20;99.90;;;;;;5212268;28;20066;-65
2022/07/27 10:09:09;;;;;;;2.58;1.90;;;31.50;99.90;;;;;;5221909;28;20036;-63
2022/07/27 10:11:50;;;;;;;3.95;3.05;;;31.60;99.90;;;;;;5239539;28;20032;-64
2022/07/27 10:14:24;;;;;;;3.20;2.67;;;31.20;99.90;;;;;;5220144;28;20043;-63
2022/07/27 10:16:56;;;;;;;3.10;2.63;;;31.00;99.90;;;;;;5217902;28;20451;-64
2022/07/27 10:19:40;;;;;;;5.75;2.75;;;30.90;99.90;;;;;;5221850;28;20341;-66
2022/07/27 10:22:12;;;;;;;3.42;2.38;;;30.60;99.90;;;;;;5221779;28;20030;-64
2022/07/27 10:24:56;;;;;;;3.63;3.00;;;30.70;99.90;;;;;;5239417;28;20511;-64
2022/07/27 10:27:28;;;;;;;3.40;3.10;;;30.00;99.90;;;;;;5238540;28;20048;-64
2022/07/27 10:30:13;;;;;;;4.28;3.70;;;29.40;99.90;;;;;;5243624;28;20216;-64
2022/07/27 10:32:46;;;;;;;;;;;29.00;99.90;;;;;;5240223;28;20020;-63
2022/07/27 10:35:34;;;;;;;5.13;3.17;;;28.70;99.90;;;;;;5239386;28;19900;-65
2022/07/27 10:38:07;;;;;;;5.40;3.13;;;28.40;99.90;;;;;;5220917;28;20028;-63
2022/07/27 10:40:42;;;;;;;4.82;2.88;;;28.40;99.90;;;;;;5239271;28;20036;-64
2022/07/27 10:43:19;;;;;;;3.88;2.78;;;28.10;99.90;;;;;;5237017;28;20278;-63
2022/07/27 10:45:51;;;;;;;4.95;3.75;;;28.00;99.90;;;;;;5232289;28;20037;-64
2022/07/27 10:48:39;;;;;;;3.47;3.17;;;28.10;99.90;;;;;;5239467;28;20116;-63
2022/07/27 10:51:15;;;;;;;3.42;3.13;;;27.70;99.90;;;;;;5220693;28;20225;-66
2022/07/27 10:53:50;;;;;;;3.88;2.97;;;27.50;99.90;;;;;;5220506;28;20351;-67
2022/07/27 10:56:47;;;;;;;10.07;4.43;;;27.30;99.90;;;;;;5239287;28;20024;-70
2022/07/27 10:59:43;;;;;;;5.60;4.40;;;26.30;99.90;;;;;;5221229;28;20169;-66
2022/07/27 11:02:37;;;;;;;7.32;4.47;;;25.40;99.90;;;;;;5239225;28;20020;-68
2022/07/27 11:05:12;;;;;;;6.00;4.72;;;24.30;99.90;;;;;;5243558;28;20421;-65
2022/07/27 11:07:43;;;;;;;;;;;23.20;99.90;;;;;;5232903;28;20031;-66
2022/07/27 11:10:17;;;;;;;5.68;5.03;;;22.80;99.90;;;;;;5202382;28;20180;-64
2022/07/27 11:12:52;;;;;;;6.18;4.63;;;22.60;99.90;;;;;;5233110;28;20024;-67
2022/07/27 11:15:23;;;;;;;7.07;5.35;;;22.60;99.90;;;;;;5215793;28;20035;-72
2022/07/27 11:17:59;;;;;;;3.38;2.80;;;22.50;99.90;;;;;;5237235;28;20044;-66
2022/07/27 11:20:30;;;;;;;5.05;3.75;;;22.40;99.90;;;;;;5238172;28;20021;-64
2022/07/27 11:23:17;;;;;;;5.85;3.92;;;22.30;99.90;;;;;;5220495;28;20020;-63
2022/07/27 11:25:59;;;;;;;3.50;2.83;;;22.20;99.90;;;;;;5220044;28;20197;-64
2022/07/27 11:28:32;;;;;;;3.33;2.40;;;22.30;99.90;;;;;;5222789;28;20024;-65
2022/07/27 11:31:08;;;;;;;2.22;2.03;;;22.40;99.90;;;;;;5238607;28;20289;-63
2022/07/27 11:33:57;;;;;;;3.00;2.70;;;22.70;99.90;;;;;;5238319;28;20017;-64
2022/07/27 11:37:00;;;;;;;4.10;3.42;;;23.20;99.90;;;;;;5237420;28;20043;-64
2022/07/27 11:39:36;;;;;;;1.45;1.33;;;23.60;99.90;;;;;;5236417;28;20032;-64
2022/07/27 11:42:10;;;;;;;1.30;1.20;;;23.10;99.90;;;;;;5219168;28;20024;-63
2022/07/27 11:44:43;;;;;;;2.88;1.10;;;22.80;99.90;;;;;;5235800;28;20016;-64
2022/07/27 11:47:22;;;;;;;1.58;1.25;;;22.70;99.90;;;;;;5237993;28;20115;-63
2022/07/27 11:50:04;;;;;;;2.40;0.75;;;22.60;99.90;;;;;;5239462;28;20114;-63
2022/07/27 11:52:38;;;;;;;0.93;0.80;;;22.50;99.90;;;;;;5222319;28;20031;-66
2022/07/27 11:55:10;;;;;;;2.05;1.08;;;22.20;99.90;;;;;;5236802;28;20030;-64
2022/07/27 11:57:42;;;;;;;3.92;1.15;;;21.80;99.90;;;;;;5219215;28;20039;-63
2022/07/27 12:00:13;;;;;;;1.50;0.90;;;21.70;99.90;;;;;;5220270;28;20024;-62
2022/07/27 12:02:53;;;;;;;0.90;0.90;;;21.80;99.90;;;;;;5202503;28;20371;-63
2022/07/27 12:05:25;;;;;;;1.73;0.90;;;22.10;99.90;;;;;;5219259;28;20020;-63
2022/07/27 12:07:56;;;;;;;3.15;1.23;;;22.30;99.90;;;;;;5208840;28;20120;-62
2022/07/27 12:10:27;;;;;;;1.85;1.55;;;22.30;99.90;;;;;;5227732;28;20032;-64
2022/07/27 12:12:58;;;;;;;0.82;0.82;;;22.30;99.90;;;;;;5218116;28;20253;-66
2022/07/27 12:15:32;;;;;;;2.38;1.00;;;22.20;99.90;;;;;;5237876;28;20213;-65
2022/07/27 12:18:04;;;;;;;1.23;1.00;;;22.00;99.90;;;;;;5227320;28;20036;-70
2022/07/27 12:20:38;;;;;;;1.20;1.10;;;21.70;99.90;;;;;;5203230;28;20298;-66
2022/07/27 12:23:10;;;;;;;1.55;1.23;;;21.50;99.90;;;;;;5255658;28;20370;-63
2022/07/27 12:25:42;;;;;;;1.63;1.30;;;21.30;99.90;;;;;;5235196;28;20205;-63
2022/07/27 12:28:16;;;;;;;0.95;0.95;;;21.20;99.90;;;;;;5256961;28;20407;-68
2022/07/27 12:30:52;;;;;;;4.60;1.27;;;21.10;99.90;;;;;;5235831;28;20035;-64
2022/07/27 12:33:30;;;;;;;1.27;1.17;;;21.30;99.90;;;;;;5219451;28;20036;-64
2022/07/27 12:36:04;;;;;;;1.77;1.50;;;21.40;99.90;;;;;;5237920;28;20017;-64
2022/07/27 12:38:49;;;;;;;1.75;1.65;;;21.50;99.90;;;;;;5233022;28;20024;-63
2022/07/27 12:41:25;;;;;;;;;;;21.70;99.90;;;;;;5230060;28;20503;-64
2022/07/27 12:44:15;;;;;;;3.05;2.03;;;21.80;99.90;;;;;;5219624;28;20081;-64
2022/07/27 12:47:00;;;;;;;1.92;1.60;;;22.00;99.90;;;;;;5237462;28;20031;-64
2022/07/27 12:49:36;;;;;;;1.88;1.67;;;22.30;99.90;;;;;;5236878;28;20031;-64
2022/07/27 12:52:11;;;;;;;1.95;1.50;;;22.60;99.90;;;;;;5236158;28;20013;-66
2022/07/27 12:54:47;;;;;;;2.60;1.67;;;22.70;99.90;;;;;;5216981;28;20062;-67
2022/07/27 12:57:23;;;;;;;1.40;1.30;;;22.90;99.90;;;;;;5219093;28;20229;-67
2022/07/27 12:59:56;;;;;;;2.47;1.45;;;22.80;99.90;;;;;;5222291;28;20023;-64
2022/07/27 13:02:30;;;;;;;1.70;1.60;;;22.30;99.90;;;;;;5237249;28;20024;-64
2022/07/27 13:05:07;;;;;;;2.43;1.70;;;22.20;99.90;;;;;;5208220;28;20354;-65
2022/07/27 13:07:39;;;;;;;2.33;1.70;;;22.20;99.90;;;;;;5213449;28;20029;-74
2022/07/27 13:10:12;;;;;;;2.20;1.60;;;22.30;99.90;;;;;;5214199;28;20043;-66
2022/07/27 13:12:43;;;;;;;1.77;1.63;;;22.50;99.90;;;;;;5221303;28;20297;-67
2022/07/27 13:15:18;;;;;;;1.73;1.50;;;22.30;99.90;;;;;;5218936;28;20032;-63
2022/07/27 13:17:52;;;;;;;3.05;2.35;;;22.30;99.90;;;;;;5236472;28;20047;-64
2022/07/27 13:20:23;;;;;;;3.05;2.65;;;22.20;99.90;;;;;;5217632;28;20062;-71
2022/07/27 13:22:58;;;;;;;2.28;2.08;;;22.00;99.90;;;;;;5236594;28;20256;-64
2022/07/27 13:25:29;;;;;;;4.38;2.10;;;21.80;99.90;;;;;;5236434;28;20017;-67
2022/07/27 13:28:03;;;;;;;2.60;2.10;;;21.80;99.90;;;;;;5219008;28;20032;-64
2022/07/27 13:30:40;;;;;;;3.20;1.77;;;21.90;99.90;;;;;;5201347;28;20036;-70